createdAt,value
2017-09-11T00:02:12.073Z,90.40
2017-09-11T00:04:39.023Z,90.80
2017-09-11T00:07:04.954Z,90.40
2017-09-11T00:09:35.670Z,90.00
2017-09-11T00:12:07.231Z,89.80
2017-09-11T00:14:36.645Z,89.40
2017-09-11T00:17:02.674Z,89.10
2017-09-11T00:19:28.689Z,89.10
2017-09-11T00:21:58.101Z,89.90
2017-09-11T00:24:24.045Z,89.60
2017-09-11T00:26:50.977Z,89.30
2017-09-11T00:29:16.905Z,89.10
2017-09-11T00:31:42.858Z,89.70
2017-09-11T00:34:09.542Z,89.90
2017-09-11T00:36:35.509Z,90.00
2017-09-11T00:39:01.433Z,89.40
2017-09-11T00:41:38.550Z,90.00
2017-09-11T00:44:19.030Z,90.00
2017-09-11T00:46:48.914Z,90.00
2017-09-11T00:49:20.749Z,90.30
2017-09-11T00:51:53.041Z,90.40
2017-09-11T00:54:21.010Z,90.40
2017-09-11T00:56:47.034Z,90.20
2017-09-11T00:59:12.967Z,90.30
2017-09-11T01:01:39.004Z,90.50
2017-09-11T01:04:05.073Z,90.70
2017-09-11T01:06:31.129Z,91.00
2017-09-11T01:08:58.125Z,91.20
2017-09-11T01:11:25.886Z,91.70
2017-09-11T01:13:53.865Z,91.70
2017-09-11T01:16:21.614Z,91.90
2017-09-11T01:18:47.679Z,91.90
2017-09-11T01:21:13.690Z,91.90
2017-09-11T01:23:40.441Z,91.80
2017-09-11T01:26:07.190Z,92.00
2017-09-11T01:28:33.925Z,92.10
2017-09-11T01:31:06.409Z,91.80
2017-09-11T01:33:32.378Z,91.90
2017-09-11T01:36:05.056Z,91.90
2017-09-11T01:38:31.028Z,91.80
2017-09-11T01:40:57.070Z,91.90
2017-09-11T01:43:24.029Z,91.90
2017-09-11T01:45:55.974Z,91.90
2017-09-11T01:48:33.592Z,91.70
2017-09-11T01:51:00.329Z,91.60
2017-09-11T01:53:28.096Z,91.50
2017-09-11T01:55:55.053Z,91.20
2017-09-11T01:58:22.814Z,90.90
2017-09-11T02:00:50.570Z,91.30
2017-09-11T02:03:16.602Z,90.90
2017-09-11T02:05:42.546Z,90.70
2017-09-11T02:08:09.202Z,90.80
2017-09-11T02:10:38.598Z,90.80
2017-09-11T02:13:10.866Z,90.80
2017-09-11T02:15:47.634Z,90.70
2017-09-11T02:18:13.673Z,90.70
2017-09-11T02:20:40.397Z,90.60
2017-09-11T02:23:06.330Z,90.60
2017-09-11T02:25:32.349Z,90.70
2017-09-11T02:27:58.277Z,90.60
2017-09-11T02:30:25.241Z,90.60
2017-09-11T02:32:51.255Z,90.50
2017-09-11T02:35:17.223Z,90.50
2017-09-11T02:37:48.135Z,90.30
2017-09-11T02:40:21.582Z,90.30
2017-09-11T02:42:47.555Z,90.00
2017-09-11T02:45:17.570Z,90.00
2017-09-11T02:47:47.388Z,89.20
2017-09-11T02:50:15.370Z,88.60
2017-09-11T02:52:44.485Z,88.20
2017-09-11T02:55:15.105Z,87.90
2017-09-11T02:57:41.130Z,87.80
2017-09-11T03:00:14.486Z,87.40
2017-09-11T03:02:40.412Z,87.40
2017-09-11T03:05:14.818Z,86.90
2017-09-11T03:07:45.517Z,86.60
2017-09-11T03:10:11.547Z,86.60
2017-09-11T03:12:37.559Z,86.50
2017-09-11T03:15:05.546Z,86.30
2017-09-11T03:17:31.565Z,86.00
2017-09-11T03:20:03.879Z,86.10
2017-09-11T03:22:44.450Z,84.80
2017-09-11T03:25:21.201Z,85.30
2017-09-11T03:27:48.137Z,84.80
2017-09-11T03:30:14.164Z,84.80
2017-09-11T03:32:40.194Z,84.70
2017-09-11T03:35:06.230Z,84.70
2017-09-11T03:37:34.206Z,84.30
2017-09-11T03:40:02.894Z,84.20
2017-09-11T03:42:28.934Z,84.20
2017-09-11T03:44:57.589Z,84.10
2017-09-11T03:47:23.507Z,84.00
2017-09-11T03:49:49.441Z,83.90
2017-09-11T03:52:20.701Z,83.70
2017-09-11T03:54:53.225Z,83.90
2017-09-11T03:57:22.793Z,84.10
2017-09-11T03:59:48.833Z,83.70
2017-09-11T04:02:17.961Z,83.70
2017-09-11T04:04:43.948Z,83.50
2017-09-11T04:07:10.912Z,83.50
2017-09-11T04:09:47.955Z,83.40
2017-09-11T04:12:14.953Z,83.20
2017-09-11T04:14:41.709Z,83.20
2017-09-11T04:17:08.382Z,83.30
2017-09-11T04:19:37.538Z,83.20
2017-09-11T04:22:04.202Z,82.80
2017-09-11T04:24:31.231Z,82.80
2017-09-11T04:27:03.531Z,82.70
2017-09-11T04:29:30.238Z,83.00
2017-09-11T04:31:56.290Z,83.00
2017-09-11T04:34:22.236Z,83.40
2017-09-11T04:36:48.149Z,83.50
2017-09-11T04:39:14.886Z,83.60
2017-09-11T04:41:41.630Z,84.20
2017-09-11T04:44:09.397Z,85.30
2017-09-11T04:46:35.401Z,84.50
2017-09-11T04:49:02.380Z,84.20
2017-09-11T04:51:33.732Z,85.50
2017-09-11T04:54:20.301Z,84.60
2017-09-11T04:56:48.284Z,84.70
2017-09-11T04:59:14.326Z,85.60
2017-09-11T05:01:42.298Z,84.30
2017-09-11T05:04:08.341Z,84.30
2017-09-11T05:06:35.090Z,84.30
2017-09-11T05:09:08.086Z,84.30
2017-09-11T05:11:38.802Z,84.50
2017-09-11T05:14:11.089Z,85.10
2017-09-11T05:16:38.872Z,88.00
2017-09-11T05:19:04.873Z,88.00
2017-09-11T05:21:34.269Z,89.00
2017-09-11T05:24:00.309Z,89.90
2017-09-11T05:26:29.027Z,91.50
2017-09-11T05:28:57.120Z,91.50
2017-09-11T05:31:23.171Z,91.90
2017-09-11T05:33:55.705Z,92.20
2017-09-11T05:36:30.482Z,93.60
2017-09-11T05:38:56.441Z,93.60
2017-09-11T05:41:22.522Z,94.20
2017-09-11T05:43:50.558Z,94.70
2017-09-11T05:46:18.332Z,95.00
2017-09-11T05:48:47.123Z,95.70
2017-09-11T05:51:13.162Z,95.60
2017-09-11T05:53:44.198Z,96.60
2017-09-11T05:56:11.994Z,97.40
2017-09-11T05:58:39.035Z,97.40
2017-09-11T06:01:10.575Z,98.40
2017-09-11T06:03:37.615Z,99.40
2017-09-11T06:06:21.610Z,99.90
2017-09-11T06:08:47.572Z,99.90
2017-09-11T06:11:13.614Z,99.90
2017-09-11T06:13:43.006Z,99.90
2017-09-11T06:16:09.033Z,99.90
2017-09-11T06:18:35.065Z,99.90
2017-09-11T06:21:01.118Z,99.90
2017-09-11T06:23:29.833Z,99.90
2017-09-11T06:25:56.838Z,99.90
2017-09-11T06:28:31.282Z,99.90
2017-09-11T06:31:05.721Z,99.90
2017-09-11T06:33:38.297Z,99.90
2017-09-11T06:36:07.592Z,99.90
2017-09-11T06:38:44.988Z,99.90
2017-09-11T06:41:12.982Z,99.90
2017-09-11T06:43:44.175Z,99.90
2017-09-11T06:46:10.275Z,99.90
2017-09-11T06:48:43.622Z,99.90
2017-09-11T06:51:15.294Z,99.90
2017-09-11T06:59:38.292Z,99.90
2017-09-11T07:02:14.913Z,99.90
2017-09-11T07:04:43.893Z,99.90
2017-09-11T07:07:10.719Z,99.90
2017-09-11T07:09:37.713Z,99.90
2017-09-11T07:12:17.709Z,99.90
2017-09-11T07:14:44.705Z,99.90
2017-09-11T07:17:11.381Z,99.90
2017-09-11T07:19:37.377Z,99.90
2017-09-11T07:22:04.113Z,99.90
2017-09-11T07:24:30.155Z,99.90
2017-09-11T07:26:56.898Z,99.90
2017-09-11T07:29:26.228Z,99.90
2017-09-11T07:31:57.400Z,99.90
2017-09-11T07:34:23.377Z,99.90
2017-09-11T07:36:52.069Z,99.90
2017-09-11T07:39:25.226Z,99.90
2017-09-11T07:41:51.185Z,99.90
2017-09-11T07:44:17.213Z,99.90
2017-09-11T07:46:45.177Z,99.90
2017-09-11T07:49:12.139Z,99.90
2017-09-11T07:51:38.886Z,99.90
2017-09-11T07:54:08.918Z,99.90
2017-09-11T07:56:34.920Z,99.90
2017-09-11T07:59:00.849Z,99.90
2017-09-11T08:01:29.870Z,99.90
2017-09-11T08:03:57.564Z,99.90
2017-09-11T08:06:23.558Z,99.90
2017-09-11T08:08:50.353Z,99.90
2017-09-11T08:11:19.598Z,99.90
2017-09-11T08:13:45.625Z,99.90
2017-09-11T08:16:11.674Z,99.90
2017-09-11T08:18:42.409Z,99.90
2017-09-11T08:21:09.142Z,99.90
2017-09-11T08:23:35.070Z,99.90
2017-09-11T08:26:01.102Z,99.90
2017-09-11T08:28:27.133Z,99.90
2017-09-11T08:30:55.093Z,99.90
2017-09-11T08:33:22.059Z,99.90
2017-09-11T08:35:49.997Z,99.90
2017-09-11T08:38:15.950Z,99.90
2017-09-11T08:40:42.903Z,99.90
2017-09-11T08:43:14.861Z,99.90
2017-09-11T08:45:46.429Z,99.90
2017-09-11T08:48:14.194Z,99.90
2017-09-11T08:50:50.350Z,99.90
2017-09-11T08:53:16.379Z,99.90
2017-09-11T08:55:42.412Z,99.90
2017-09-11T08:58:08.457Z,99.90
2017-09-11T09:00:34.401Z,99.90
2017-09-11T09:03:07.065Z,99.90
2017-09-11T09:05:40.889Z,99.90
2017-09-11T09:08:07.906Z,99.90
2017-09-11T09:10:41.533Z,99.50
2017-09-11T09:13:12.063Z,99.00
2017-09-11T09:15:39.820Z,98.90
2017-09-11T09:18:10.267Z,99.40
2017-09-11T09:20:36.281Z,99.40
2017-09-11T09:23:14.203Z,99.60
2017-09-11T09:25:47.930Z,99.20
2017-09-11T09:28:13.864Z,99.10
2017-09-11T09:30:51.007Z,99.20
2017-09-11T09:33:18.806Z,98.90
2017-09-11T09:35:48.374Z,98.60
2017-09-11T09:38:16.398Z,98.90
2017-09-11T09:40:45.809Z,99.90
2017-09-11T09:43:11.758Z,99.50
2017-09-11T09:45:42.826Z,99.20
2017-09-11T09:48:08.863Z,99.20
2017-09-11T09:50:40.340Z,99.90
2017-09-11T09:53:11.766Z,99.90
2017-09-11T09:55:46.234Z,99.70
2017-09-11T09:58:18.678Z,99.70
2017-09-11T10:00:52.286Z,99.00
2017-09-11T10:03:18.265Z,98.90
2017-09-11T10:05:44.198Z,99.40
2017-09-11T10:08:21.664Z,99.90
2017-09-11T10:10:53.162Z,99.90
2017-09-11T10:13:21.950Z,99.90
2017-09-11T10:15:50.636Z,99.90
2017-09-11T10:18:16.575Z,99.90
2017-09-11T10:20:45.232Z,99.20
2017-09-11T10:23:14.255Z,99.00
2017-09-11T10:25:41.270Z,98.90
2017-09-11T10:28:08.257Z,98.50
2017-09-11T10:30:34.195Z,98.90
2017-09-11T10:33:15.406Z,95.20
2017-09-11T10:35:44.985Z,95.00
2017-09-11T10:38:21.790Z,99.90
2017-09-11T10:40:58.671Z,99.90
2017-09-11T10:43:24.610Z,93.40
2017-09-11T10:45:52.645Z,94.00
2017-09-11T10:48:25.545Z,91.10
2017-09-11T10:50:53.478Z,91.00
2017-09-11T10:53:19.509Z,88.00
2017-09-11T10:55:58.170Z,85.20
2017-09-11T10:58:26.206Z,83.90
2017-09-11T11:03:55.639Z,81.40
2017-09-11T11:06:47.311Z,76.50
2017-09-11T11:09:31.342Z,75.60
2017-09-11T11:12:03.883Z,74.20
2017-09-11T11:14:33.465Z,75.30
2017-09-11T11:19:52.659Z,77.20
2017-09-11T11:22:38.190Z,70.60
2017-09-11T11:25:14.854Z,70.60
2017-09-11T11:27:47.070Z,69.60
2017-09-11T11:30:13.750Z,69.80
2017-09-11T11:32:53.286Z,69.80
2017-09-11T11:35:23.669Z,71.30
2017-09-11T11:37:59.246Z,68.50
2017-09-11T11:40:32.142Z,68.40
2017-09-11T11:43:05.106Z,69.20
2017-09-11T11:45:35.032Z,65.20
2017-09-11T11:48:11.907Z,65.00
2017-09-11T11:50:54.551Z,63.70
2017-09-11T11:53:24.403Z,63.70
2017-09-11T11:56:00.800Z,64.20
2017-09-11T11:58:29.594Z,63.00
2017-09-11T12:01:06.902Z,63.80
2017-09-11T12:03:32.849Z,63.70
2017-09-11T12:06:09.877Z,62.40
2017-09-11T12:08:36.564Z,60.10
2017-09-11T12:11:02.643Z,60.00
2017-09-11T12:13:35.458Z,61.80
2017-09-11T12:18:58.907Z,62.10
2017-09-11T12:21:37.537Z,60.70
2017-09-11T12:24:08.964Z,60.10
2017-09-11T12:26:35.938Z,59.00
2017-09-11T12:29:09.272Z,58.50
2017-09-11T12:31:56.300Z,59.20
2017-09-11T12:34:43.095Z,59.30
2017-09-11T12:37:21.797Z,58.90
2017-09-11T12:39:51.470Z,57.60
2017-09-11T12:42:18.390Z,58.10
2017-09-11T12:44:44.329Z,58.00
2017-09-11T12:47:21.875Z,58.80
2017-09-11T12:50:01.514Z,58.00
2017-09-11T12:52:40.115Z,57.90
2017-09-11T12:55:09.698Z,58.30
2017-09-11T12:57:50.198Z,58.80
2017-09-11T13:00:17.240Z,58.80
2017-09-11T13:02:44.257Z,58.60
2017-09-11T13:05:25.910Z,60.00
2017-09-11T13:08:03.511Z,59.90
2017-09-11T13:10:30.556Z,63.80
2017-09-11T13:12:58.561Z,63.50
2017-09-11T13:15:27.861Z,66.90
2017-09-11T13:17:57.385Z,65.20
2017-09-11T13:20:23.406Z,69.70
2017-09-11T13:22:54.446Z,73.10
2017-09-11T13:25:21.385Z,77.80
2017-09-11T13:27:47.413Z,80.60
2017-09-11T13:30:13.477Z,82.20
2017-09-11T13:35:36.217Z,77.60
2017-09-11T13:38:13.971Z,72.60
2017-09-11T13:40:42.099Z,73.00
2017-09-11T13:43:17.157Z,63.70
2017-09-11T13:48:57.370Z,60.40
2017-09-11T13:51:23.410Z,57.50
2017-09-11T13:53:57.546Z,53.30
2017-09-11T13:56:28.492Z,51.50
2017-09-11T13:58:57.965Z,51.40
2017-09-11T14:01:45.579Z,51.20
2017-09-11T14:04:18.518Z,48.70
2017-09-11T14:06:52.929Z,48.40
2017-09-11T14:09:30.526Z,49.20
2017-09-11T14:11:58.503Z,49.00
2017-09-11T14:14:33.839Z,46.50
2017-09-11T14:17:11.521Z,46.90
2017-09-11T14:19:46.066Z,47.40
2017-09-11T14:22:22.515Z,47.40
2017-09-11T14:24:50.296Z,48.50
2017-09-11T14:27:19.564Z,49.80
2017-09-11T14:30:03.680Z,49.80
2017-09-11T14:32:37.333Z,50.00
2017-09-11T14:35:05.200Z,50.50
2017-09-11T14:37:34.421Z,50.50
2017-09-11T14:40:00.358Z,51.20
2017-09-11T14:42:26.302Z,52.00
2017-09-11T14:44:52.246Z,50.60
2017-09-11T14:47:18.180Z,48.40
2017-09-11T14:49:44.247Z,46.10
2017-09-11T14:52:10.234Z,44.40
2017-09-11T14:54:36.156Z,42.30
2017-09-11T14:57:02.126Z,42.00
2017-09-11T14:59:28.131Z,41.60
2017-09-11T15:01:54.096Z,41.00
2017-09-11T15:04:20.065Z,40.60
2017-09-11T15:06:46.005Z,41.10
2017-09-11T15:09:11.980Z,41.00
2017-09-11T15:11:37.947Z,40.90
2017-09-11T15:14:03.870Z,41.30
2017-09-11T15:16:29.826Z,42.10
2017-09-11T15:18:55.910Z,42.90
2017-09-11T15:21:21.834Z,44.80
2017-09-11T15:23:47.763Z,48.90
2017-09-11T15:26:13.686Z,51.10
2017-09-11T15:28:39.621Z,52.40
2017-09-11T15:31:05.582Z,53.50
2017-09-11T15:33:31.515Z,53.90
2017-09-11T15:35:57.451Z,54.00
2017-09-11T15:38:23.427Z,52.90
2017-09-11T15:40:49.382Z,50.60
2017-09-11T15:43:15.315Z,49.90
2017-09-11T15:45:41.269Z,48.70
2017-09-11T15:48:07.948Z,48.80
2017-09-11T15:50:33.879Z,48.70
2017-09-11T15:52:59.796Z,49.60
2017-09-11T15:55:25.741Z,50.70
2017-09-11T15:57:51.674Z,51.40
2017-09-11T16:00:17.610Z,51.90
2017-09-11T16:02:56.723Z,52.70
2017-09-11T16:08:15.795Z,54.10
2017-09-11T16:10:41.751Z,55.50
2017-09-11T16:13:07.695Z,56.70
2017-09-11T16:15:33.615Z,56.50
2017-09-11T16:17:59.554Z,57.50
2017-09-11T16:20:30.785Z,59.00
2017-09-11T16:22:56.726Z,59.00
2017-09-11T16:25:22.666Z,59.20
2017-09-11T16:27:48.622Z,59.40
2017-09-11T16:30:14.579Z,60.60
2017-09-11T16:32:40.518Z,62.60
2017-09-11T16:35:09.553Z,64.40
2017-09-11T16:37:40.062Z,66.70
2017-09-11T16:40:06.006Z,66.70
2017-09-11T16:42:36.048Z,69.80
2017-09-11T16:45:01.992Z,69.00
2017-09-11T16:47:32.298Z,69.50
2017-09-11T16:49:59.954Z,70.00
2017-09-11T16:52:27.622Z,68.80
2017-09-11T16:54:53.602Z,68.80
2017-09-11T16:57:19.546Z,68.30
2017-09-11T16:59:45.474Z,66.60
2017-09-11T17:02:11.427Z,67.20
2017-09-11T17:04:38.107Z,67.90
2017-09-11T17:07:06.039Z,67.90
2017-09-11T17:09:31.971Z,68.40
2017-09-11T17:11:59.647Z,68.00
2017-09-11T17:14:26.327Z,68.70
2017-09-11T17:16:52.262Z,68.10
2017-09-11T17:19:18.197Z,68.20
2017-09-11T17:21:44.187Z,68.60
2017-09-11T17:24:10.163Z,68.70
2017-09-11T17:26:36.101Z,68.60
2017-09-11T17:29:02.033Z,70.90
2017-09-11T17:31:43.599Z,70.90
2017-09-11T17:37:04.750Z,71.40
2017-09-11T17:39:31.067Z,72.30
2017-09-11T17:41:57.121Z,73.30
2017-09-11T17:44:26.910Z,73.70
2017-09-11T17:46:52.845Z,73.70
2017-09-11T17:49:18.849Z,74.50
2017-09-11T17:51:48.328Z,74.80
2017-09-11T17:54:14.499Z,75.10
2017-09-11T17:56:42.207Z,75.40
2017-09-11T17:59:08.161Z,75.40
2017-09-11T18:01:34.138Z,75.50
2017-09-11T18:04:03.694Z,75.70
2017-09-11T18:06:29.660Z,75.80
2017-09-11T18:08:55.614Z,76.00
2017-09-11T18:12:01.036Z,77.60
2017-09-11T18:14:26.982Z,76.90
2017-09-11T18:16:53.693Z,78.00
2017-09-11T18:19:19.702Z,77.90
2017-09-11T18:21:45.634Z,78.10
2017-09-11T18:24:11.583Z,78.20
2017-09-11T18:26:37.506Z,78.20
2017-09-11T18:29:03.461Z,78.10
2017-09-11T18:31:32.659Z,78.20
2017-09-11T18:33:58.640Z,78.20
2017-09-11T18:36:24.579Z,77.90
2017-09-11T18:38:51.010Z,77.80
2017-09-11T18:41:16.986Z,77.90
2017-09-11T18:43:42.949Z,77.20
2017-09-11T18:46:10.139Z,75.90
2017-09-11T18:48:36.086Z,75.50
2017-09-11T18:51:02.022Z,74.90
2017-09-11T18:53:27.954Z,73.50
2017-09-11T18:55:54.625Z,72.60
2017-09-11T18:58:20.609Z,71.50
2017-09-11T19:00:49.633Z,71.70
2017-09-11T19:03:16.321Z,71.30
2017-09-11T19:05:42.270Z,71.30
2017-09-11T19:08:08.231Z,71.30
2017-09-11T19:10:38.560Z,71.50
2017-09-11T19:13:05.226Z,71.00
2017-09-11T19:15:34.646Z,70.90
2017-09-11T19:18:00.627Z,71.30
2017-09-11T19:20:26.582Z,71.60
2017-09-11T19:22:52.568Z,71.70
2017-09-11T19:25:18.532Z,71.60
2017-09-11T19:27:45.214Z,74.00
2017-09-11T19:30:11.191Z,73.90
2017-09-11T19:32:44.210Z,76.90
2017-09-11T19:35:16.786Z,76.60
2017-09-11T19:37:48.221Z,77.60
2017-09-11T19:40:37.446Z,80.00
2017-09-11T19:43:24.857Z,80.00
2017-09-11T19:45:50.823Z,80.80
2017-09-11T19:48:30.963Z,81.60
2017-09-11T19:51:05.320Z,81.70
2017-09-11T19:53:46.737Z,81.70
2017-09-11T19:56:17.556Z,81.60
2017-09-11T19:58:56.661Z,81.60
2017-09-11T20:01:47.315Z,81.20
2017-09-11T20:04:19.944Z,81.00
2017-09-11T20:06:53.935Z,80.80
2017-09-11T20:09:34.149Z,80.70
2017-09-11T20:12:04.707Z,80.80
2017-09-11T20:14:52.818Z,81.80
2017-09-11T20:17:19.857Z,81.80
2017-09-11T20:19:54.433Z,81.70
2017-09-11T20:22:33.490Z,81.60
2017-09-11T20:25:07.878Z,81.40
2017-09-11T20:27:41.647Z,81.50
2017-09-11T20:30:07.729Z,81.90
2017-09-11T20:32:40.582Z,82.40
2017-09-11T20:35:07.577Z,83.20
2017-09-11T20:37:34.596Z,83.10
2017-09-11T20:40:22.290Z,83.50
2017-09-11T20:42:48.369Z,83.40
2017-09-11T20:45:18.387Z,83.20
2017-09-11T20:48:01.862Z,83.20
2017-09-11T20:50:28.004Z,83.40
2017-09-11T20:52:57.730Z,82.70
2017-09-11T20:55:45.025Z,82.30
2017-09-11T20:58:18.504Z,81.80
2017-09-11T21:00:44.485Z,81.30
2017-09-11T21:03:15.074Z,80.70
2017-09-11T21:05:42.091Z,80.70
2017-09-11T21:08:26.321Z,80.90
2017-09-11T21:11:03.210Z,80.00
2017-09-11T21:13:33.807Z,79.90
2017-09-11T21:16:09.169Z,80.60
2017-09-11T21:18:42.553Z,80.00
2017-09-11T21:21:13.242Z,79.70
2017-09-11T21:23:47.613Z,79.60
2017-09-11T21:26:20.924Z,79.60
2017-09-11T21:28:53.330Z,79.50
2017-09-11T21:31:19.250Z,79.20
2017-09-11T21:33:46.275Z,79.30
2017-09-11T21:36:25.521Z,79.30
2017-09-11T21:38:58.989Z,79.10
2017-09-11T21:41:31.567Z,80.30
2017-09-11T21:44:06.414Z,79.30
2017-09-11T21:46:40.121Z,79.20
2017-09-11T21:49:10.033Z,79.20
2017-09-11T21:51:36.834Z,79.30
2017-09-11T21:54:06.201Z,79.30
2017-09-11T21:56:36.117Z,79.30
2017-09-11T21:59:07.541Z,79.20
2017-09-11T22:01:43.922Z,79.60
2017-09-11T22:04:11.682Z,79.50
2017-09-11T22:06:40.480Z,79.80
2017-09-11T22:09:11.633Z,79.60
2017-09-11T22:11:49.557Z,79.80
2017-09-11T22:14:26.854Z,79.60
2017-09-11T22:17:03.394Z,79.70
2017-09-11T22:19:35.069Z,79.80
2017-09-11T22:22:07.626Z,79.90
2017-09-11T22:24:40.242Z,79.80
2017-09-11T22:27:13.643Z,79.90
2017-09-11T22:29:46.902Z,79.80
2017-09-11T22:32:19.873Z,79.70
2017-09-11T22:34:47.654Z,79.80
2017-09-11T22:37:25.670Z,79.80
2017-09-11T22:39:57.099Z,79.70
2017-09-11T22:42:31.825Z,79.70
2017-09-11T22:45:05.358Z,79.70
2017-09-11T22:47:35.245Z,79.70
2017-09-11T22:50:09.394Z,79.50
2017-09-11T22:52:43.494Z,79.60
2017-09-11T22:55:16.778Z,79.30
2017-09-11T22:57:44.509Z,79.10
2017-09-11T23:00:10.578Z,79.00
2017-09-11T23:02:37.250Z,78.90
2017-09-11T23:05:28.074Z,78.80
2017-09-11T23:07:57.797Z,78.70
2017-09-11T23:10:34.191Z,78.70
2017-09-11T23:13:06.980Z,79.10
2017-09-11T23:15:40.372Z,79.50
2017-09-11T23:18:13.071Z,79.30
2017-09-11T23:20:45.618Z,79.20
2017-09-11T23:23:19.035Z,79.30
2017-09-11T23:25:52.426Z,79.30
2017-09-11T23:28:23.042Z,79.20
2017-09-11T23:30:55.424Z,79.10
2017-09-11T23:33:32.958Z,79.20
2017-09-11T23:36:03.638Z,79.20
2017-09-11T23:38:37.150Z,79.30
2017-09-11T23:41:08.725Z,79.10
2017-09-11T23:43:34.754Z,79.10
2017-09-11T23:46:04.535Z,79.30
2017-09-11T23:48:30.566Z,79.30
2017-09-11T23:50:56.597Z,79.00
2017-09-11T23:53:22.622Z,79.10
2017-09-11T23:55:56.559Z,79.10
2017-09-11T23:58:35.371Z,79.20
